Time;durP1;ratioP1;P1;durP2;ratioP2;P2;SDS_P1;SDS_P2;PMS_P1;PMS_P2;Temp;Humidity;BMP_temperature;BMP_pressure;BME280_temperature;BME280_humidity;BME280_pressure;Samples;Min_cycle;Max_cycle;Signal;HPM_P1;HPM_P2
2023/07/14 00:00:08;;;;;;;3.10;1.70;;;;;;;-145.69;57.69;51868.13;5095659;28;20266;-84
2023/07/14 00:02:37;;;;;;;4.83;1.87;;;;;;;-145.69;57.88;51846.34;5096689;28;20568;-85
2023/07/14 00:05:04;;;;;;;4.87;1.60;;;;;;;-145.69;58.09;51834.47;5095382;28;20544;-84
2023/07/14 00:07:30;;;;;;;5.33;2.23;;;;;;;-145.69;57.95;51878.03;5094983;28;20288;-85
2023/07/14 00:09:57;;;;;;;4.37;1.90;;;;;;;-145.69;57.51;51854.28;5095538;28;20522;-85
2023/07/14 00:12:24;;;;;;;8.10;2.00;;;;;;;-145.69;57.53;51878.03;5095706;28;20880;-85
2023/07/14 00:14:50;;;;;;;2.67;1.63;;;;;;;-145.69;57.96;51860.22;5096659;28;20645;-84
2023/07/14 00:17:17;;;;;;;7.77;1.80;;;;;;;-145.69;57.91;51854.28;5096033;28;20237;-85
2023/07/14 00:19:45;;;;;;;4.63;2.00;;;;;;;-145.69;58.73;51838.44;5097642;28;20198;-85
2023/07/14 00:22:12;;;;;;;3.83;1.90;;;;;;;-145.69;58.79;51846.34;5101008;28;20205;-85
2023/07/14 00:24:39;;;;;;;4.57;2.13;;;;;;;-145.69;58.15;51836.44;5099155;28;20205;-84
2023/07/14 00:27:17;;;;;;;4.70;1.97;;;;;;;-145.69;58.16;51862.19;5100353;28;20198;-84
2023/07/14 00:29:45;;;;;;;4.47;2.00;;;;;;;-145.69;58.75;51870.13;5099223;28;20707;-84
2023/07/14 00:32:13;;;;;;;5.93;1.83;;;;;;;-145.69;58.63;51885.94;5101186;28;20197;-84
2023/07/14 00:34:40;;;;;;;4.13;1.83;;;;;;;-145.69;59.16;51858.22;5101928;28;20205;-85
2023/07/14 00:37:08;;;;;;;3.83;1.73;;;;;;;-145.69;58.96;51897.84;5098928;28;20222;-84
2023/07/14 00:39:35;;;;;;;2.77;1.80;;;;;;;-145.69;59.71;51874.06;5100220;28;20206;-85
2023/07/14 00:42:03;;;;;;;5.47;2.03;;;;;;;-145.69;59.49;51864.16;5101017;28;20661;-84
2023/07/14 00:44:33;;;;;;;3.40;1.90;;;;;;;-145.69;59.79;51887.94;5100737;28;20199;-84
2023/07/14 00:47:00;;;;;;;6.50;1.80;;;;;;;-145.69;59.75;51901.78;5103257;28;20224;-85
2023/07/14 00:49:32;;;;;;;5.07;1.67;;;;;;;-145.69;59.28;51846.34;5103607;28;20206;-84
2023/07/14 00:52:04;;;;;;;6.60;2.00;;;;;;;-145.69;59.20;51883.97;5098304;28;20212;-85
2023/07/14 00:54:34;;;;;;;8.77;1.93;;;;;;;-145.69;59.69;51876.06;5098292;28;20679;-85
2023/07/14 00:57:01;;;;;;;5.33;2.00;;;;;;;-145.69;59.61;51858.22;5102221;28;20229;-85
2023/07/14 00:59:33;;;;;;;3.90;1.70;;;;;;;-145.69;59.82;51858.22;5101825;28;20205;-85
2023/07/14 01:02:22;;;;;;;5.33;1.67;;;;;;;-145.69;59.06;51889.91;5103711;28;20208;-85
2023/07/14 01:04:53;;;;;;;7.60;1.90;;;;;;;-145.69;59.92;51870.13;5094463;28;20194;-85
2023/07/14 01:07:30;;;;;;;7.37;1.70;;;;;;;-145.69;59.78;51852.28;5101508;28;20202;-85
2023/07/14 01:10:01;;;;;;;4.40;1.93;;;;;;;-145.69;60.61;51864.16;5101812;28;20687;-85
2023/07/14 01:12:30;;;;;;;3.40;1.70;;;;;;;-145.69;60.89;51897.84;5098677;28;20226;-85
2023/07/14 01:14:58;;;;;;;6.53;2.00;;;;;;;-145.69;61.14;51876.06;5099832;28;20672;-85
2023/07/14 01:17:25;;;;;;;10.23;1.90;;;;;;;-145.69;61.54;51866.16;5102514;28;20228;-84
2023/07/14 01:19:56;;;;;;;3.87;2.07;;;;;;;-145.69;61.96;51889.91;5100012;28;20206;-84
2023/07/14 01:22:30;;;;;;;3.97;1.90;;;;;;;-145.69;61.94;51876.06;5101781;28;20229;-84
2023/07/14 01:25:09;;;;;;;4.27;1.90;;;;;;;-145.69;62.07;51864.16;5105132;28;20288;-85
2023/07/14 01:27:37;;;;;;;4.73;1.80;;;;;;;-145.69;62.61;51862.19;5102805;28;20208;-84
2023/07/14 01:30:06;;;;;;;6.23;1.80;;;;;;;-145.69;62.68;51880.00;5103460;28;20229;-84
2023/07/14 01:32:36;;;;;;;6.47;2.07;;;;;;;-145.69;62.42;51868.13;5105018;28;20213;-85
2023/07/14 01:35:05;;;;;;;4.30;1.80;;;;;;;-145.69;62.96;51858.22;5100425;28;20213;-84
2023/07/14 01:37:35;;;;;;;5.03;1.73;;;;;;;-145.69;62.87;51882.00;5100591;28;20261;-84
2023/07/14 01:40:05;;;;;;;7.13;1.97;;;;;;;-145.69;62.84;51905.75;5102268;28;20257;-85
2023/07/14 01:42:32;;;;;;;6.23;2.00;;;;;;;-145.69;63.33;51901.78;5101110;28;20194;-86
2023/07/14 01:45:01;;;;;;;3.07;2.00;;;;;;;-145.69;62.97;51882.00;5097152;28;20294;-84
2023/07/14 01:47:30;;;;;;;7.30;1.97;;;;;;;-145.69;62.87;51880.00;5098885;28;20202;-84
2023/07/14 01:49:59;;;;;;;5.57;2.00;;;;;;;-145.69;62.76;51878.03;5103373;28;20201;-85
2023/07/14 01:52:32;;;;;;;8.50;2.03;;;;;;;-145.69;63.07;51901.78;5101547;28;20206;-84
2023/07/14 01:55:04;;;;;;;4.53;1.87;;;;;;;-145.69;63.96;51882.00;5101151;28;20266;-85
2023/07/14 01:57:34;;;;;;;3.87;2.30;;;;;;;-145.69;63.36;51885.94;5101832;28;20222;-85
2023/07/14 02:00:09;;;;;;;4.77;1.63;;;;;;;-145.69;63.50;51901.78;5099766;28;20216;-85
2023/07/14 02:02:38;;;;;;;8.83;2.40;;;;;;;-145.69;64.43;51911.69;5101456;28;20557;-85
2023/07/14 02:05:16;;;;;;;4.10;2.00;;;;;;;-145.69;64.70;51883.97;5100060;28;20275;-85
2023/07/14 02:07:42;;;;;;;3.93;1.80;;;;;;;-145.69;64.96;51897.84;5096747;28;20326;-84
2023/07/14 02:10:13;;;;;;;6.53;2.30;;;;;;;-145.69;64.99;51893.88;5098686;28;20198;-85
2023/07/14 02:12:46;;;;;;;7.50;1.97;;;;;;;-145.69;65.29;51909.72;5096989;28;20240;-84
2023/07/14 02:15:18;;;;;;;9.73;2.00;;;;;;;-145.69;64.81;51878.03;5096384;28;20205;-85
2023/07/14 02:17:45;;;;;;;4.47;1.80;;;;;;;-145.69;64.99;51874.06;5095422;28;20225;-85
2023/07/14 02:20:19;;;;;;;7.93;2.00;;;;;;;-145.69;64.47;51889.91;5095418;28;20660;-86
2023/07/14 02:22:46;;;;;;;6.40;2.33;;;;;;;-145.69;64.92;51889.91;5095092;28;20263;-84
2023/07/14 02:25:16;;;;;;;10.73;2.00;;;;;;;-145.69;64.14;51893.88;5096773;28;20206;-85
2023/07/14 02:27:43;;;;;;;5.87;2.00;;;;;;;-145.69;64.79;51885.94;5094753;28;20208;-85
2023/07/14 02:30:18;;;;;;;3.63;2.00;;;;;;;-145.69;64.24;51874.06;5094329;28;20194;-85
2023/07/14 02:32:49;;;;;;;4.07;2.03;;;;;;;-145.69;64.64;51874.06;5097030;28;20321;-85
2023/07/14 02:35:23;;;;;;;3.70;1.93;;;;;;;-145.69;64.44;51897.84;5095498;28;20209;-84
2023/07/14 02:38:03;;;;;;;4.37;1.97;;;;;;;-145.69;64.09;51885.94;5096641;28;20229;-85
2023/07/14 02:40:33;;;;;;;5.30;1.70;;;;;;;-145.69;64.68;51897.84;5095766;28;20327;-85
2023/07/14 02:42:59;;;;;;;5.57;2.37;;;;;;;-145.69;64.90;51864.16;5089167;28;20234;-86
2023/07/14 02:45:28;;;;;;;4.80;2.00;;;;;;;-145.69;65.12;51915.66;5089558;28;20204;-85
2023/07/14 02:48:00;;;;;;;8.10;1.70;;;;;;;-145.69;64.99;51885.94;5095513;28;20220;-86
2023/07/14 02:50:26;;;;;;;4.80;1.90;;;;;;;-145.69;65.82;51893.88;5093297;28;20206;-85
2023/07/14 02:52:53;;;;;;;5.93;2.03;;;;;;;-145.69;65.75;51872.09;5094117;28;20209;-85
2023/07/14 02:55:19;;;;;;;7.47;2.07;;;;;;;-145.69;65.29;51905.75;5094121;28;20209;-86
2023/07/14 02:57:46;;;;;;;7.00;1.80;;;;;;;-145.69;65.31;51901.78;5095136;28;20222;-85
2023/07/14 03:00:15;;;;;;;4.93;1.90;;;;;;;-145.69;65.52;51917.63;5093377;28;20198;-85
2023/07/14 03:02:43;;;;;;;5.60;1.67;;;;;;;-145.69;64.85;51909.72;5093670;28;20198;-86
2023/07/14 03:05:11;;;;;;;1.90;1.70;;;;;;;-145.69;65.78;51885.94;5095253;28;20191;-85
2023/07/14 03:07:38;;;;;;;6.50;1.80;;;;;;;-145.69;65.43;51907.72;5096899;28;20198;-86
2023/07/14 03:10:06;;;;;;;8.30;1.83;;;;;;;-145.69;64.71;51850.31;5097995;28;20221;-85
2023/07/14 03:12:32;;;;;;;6.27;1.83;;;;;;;-145.69;64.79;51905.75;5087898;28;20230;-85
2023/07/14 03:14:59;;;;;;;3.80;1.80;;;;;;;-145.69;64.94;51925.56;5082663;28;20255;-85
2023/07/14 03:17:26;;;;;;;7.23;1.70;;;;;;;-145.69;64.82;51893.88;5095651;28;20703;-85
2023/07/14 03:19:54;;;;;;;5.50;1.60;;;;;;;-145.69;64.76;51862.19;5097958;28;20194;-85
2023/07/14 03:22:23;;;;;;;5.13;2.10;;;;;;;-145.69;64.94;51895.84;5091390;28;20209;-85
2023/07/14 03:24:49;;;;;;;9.17;1.93;;;;;;;-145.69;64.66;51913.69;5077892;28;20202;-86
2023/07/14 03:27:16;;;;;;;5.13;1.80;;;;;;;-145.69;64.74;51911.69;5081509;28;20257;-85
2023/07/14 03:29:42;;;;;;;5.97;1.70;;;;;;;-145.69;64.53;51933.47;5095983;28;20214;-86
2023/07/14 03:32:13;;;;;;;3.53;2.07;;;;;;;-145.69;63.89;51895.84;5096606;28;20198;-85
2023/07/14 03:34:40;;;;;;;4.40;2.07;;;;;;;-145.69;64.38;51921.59;5094735;28;20202;-85
2023/07/14 03:37:08;;;;;;;5.43;2.03;;;;;;;-145.69;64.12;51915.66;5095041;28;20552;-85
2023/07/14 03:39:35;;;;;;;3.27;1.87;;;;;;;-145.69;64.29;51933.47;5094751;28;20274;-85
2023/07/14 03:42:02;;;;;;;3.80;2.00;;;;;;;-145.69;64.34;51874.06;5095041;28;20663;-85
2023/07/14 03:44:28;;;;;;;13.97;2.87;;;;;;;-145.69;63.89;51895.84;5095826;28;20564;-85
2023/07/14 03:46:55;;;;;;;3.33;1.63;;;;;;;-145.69;64.17;51903.78;5096400;28;20202;-85
2023/07/14 03:49:22;;;;;;;5.07;2.10;;;;;;;-145.69;63.80;51901.78;5096380;28;20270;-85
2023/07/14 03:51:48;;;;;;;4.40;1.90;;;;;;;-145.69;63.56;51903.78;5095573;28;20268;-86
2023/07/14 03:54:16;;;;;;;2.43;1.60;;;;;;;-145.69;62.95;51891.88;5094473;28;20210;-85
2023/07/14 03:56:44;;;;;;;6.47;2.10;;;;;;;-145.69;63.08;51870.13;5098146;28;20285;-85
2023/07/14 03:59:10;;;;;;;9.77;1.90;;;;;;;-145.69;62.72;51883.97;5097366;28;20218;-86
2023/07/14 04:01:37;;;;;;;4.17;1.90;;;;;;;-145.69;62.43;51911.69;5098935;28;20202;-86
2023/07/14 04:04:04;;;;;;;8.67;2.00;;;;;;;-145.69;62.15;51883.97;5100172;28;20653;-86
2023/07/14 04:06:30;;;;;;;11.07;2.03;;;;;;;-145.69;61.59;51901.78;5100980;28;20285;-86
2023/07/14 04:09:00;;;;;;;5.27;1.60;;;;;;;-145.69;60.79;51868.13;5101221;28;20193;-86
2023/07/14 04:11:28;;;;;;;4.17;1.83;;;;;;;-145.69;60.44;51899.81;5098338;28;20549;-86
2023/07/14 04:13:55;;;;;;;5.07;2.03;;;;;;;-145.69;60.41;51909.72;5099113;28;20234;-85
2023/07/14 04:16:23;;;;;;;3.13;1.57;;;;;;;-145.69;60.24;51882.00;5100558;28;20195;-86
2023/07/14 04:18:50;;;;;;;6.77;1.80;;;;;;;-145.69;59.66;51882.00;5098564;28;20222;-86
2023/07/14 04:21:16;;;;;;;3.17;1.80;;;;;;;-145.69;59.51;51901.78;5098011;28;20316;-85
2023/07/14 04:23:43;;;;;;;2.93;1.63;;;;;;;-145.69;59.30;51856.25;5099951;28;20206;-85
2023/07/14 04:26:11;;;;;;;6.17;1.80;;;;;;;-145.69;58.61;51882.00;5101434;28;20209;-85
2023/07/14 04:28:39;;;;;;;2.83;1.50;;;;;;;-145.69;58.33;51878.03;5100890;28;20205;-85
2023/07/14 04:31:06;;;;;;;6.43;1.77;;;;;;;-145.69;58.68;51895.84;5100077;28;20656;-85
2023/07/14 04:33:33;;;;;;;3.43;1.83;;;;;;;-145.69;57.55;51907.72;5101438;28;20205;-85
2023/07/14 04:36:00;;;;;;;5.17;1.50;;;;;;;-145.69;57.52;51899.81;5101261;28;20233;-85
2023/07/14 04:38:28;;;;;;;2.77;1.40;;;;;;;-145.69;58.06;51885.94;5099178;28;20253;-86
2023/07/14 04:40:55;;;;;;;11.13;1.90;;;;;;;-145.69;58.02;51887.94;5103746;28;20269;-85
2023/07/14 04:43:22;;;;;;;9.37;1.43;;;;;;;-145.69;57.25;51866.16;5101467;28;20268;-85
2023/07/14 04:45:51;;;;;;;6.13;1.90;;;;;;;-145.69;57.02;51885.94;5103136;28;20203;-85
2023/07/14 04:48:21;;;;;;;3.85;1.48;;;;;;;-145.69;56.96;51903.78;5102377;28;20198;-86
2023/07/14 04:50:48;;;;;;;7.95;2.05;;;;;;;-145.69;56.33;51872.09;5101155;28;20209;-86
2023/07/14 04:53:16;;;;;;;2.67;1.50;;;;;;;-145.69;55.83;51854.28;5101239;28;20208;-86
2023/07/14 04:55:45;;;;;;;5.10;1.67;;;;;;;-145.69;55.74;51862.19;5101396;28;20633;-85
2023/07/14 04:58:14;;;;;;;13.50;1.70;;;;;;;-145.69;54.46;51862.19;5101184;28;20229;-85
2023/07/14 05:00:42;;;;;;;2.60;1.63;;;;;;;-145.69;54.23;51854.28;5101183;28;20210;-85
2023/07/14 05:03:11;;;;;;;6.73;1.70;;;;;;;-145.69;53.30;51880.00;5099444;28;20661;-86
2023/07/14 05:05:37;;;;;;;5.60;1.70;;;;;;;-145.69;53.60;51860.22;5098610;28;20194;-85
2023/07/14 05:08:04;;;;;;;7.03;1.50;;;;;;;-145.69;52.99;51876.06;5098813;28;20667;-85
2023/07/14 05:10:32;;;;;;;3.15;1.48;;;;;;;-145.69;51.43;51862.19;5095881;28;20201;-85
2023/07/14 05:12:59;;;;;;;3.15;1.40;;;;;;;-145.69;51.68;51878.03;5098924;28;20245;-86
2023/07/14 05:15:26;;;;;;;4.10;1.40;;;;;;;-145.69;51.04;51836.44;5098109;28;20657;-86
2023/07/14 05:17:55;;;;;;;5.28;1.50;;;;;;;-145.69;50.79;51862.19;5100222;28;20706;-85
2023/07/14 05:20:24;;;;;;;3.22;1.33;;;;;;;-145.69;49.91;51854.28;5098140;28;20204;-84
2023/07/14 05:22:52;;;;;;;2.42;1.38;;;;;;;-145.69;49.05;51870.13;5097813;28;20194;-85
2023/07/14 05:25:19;;;;;;;6.30;1.27;;;;;;;-145.69;49.49;51832.50;5097474;28;20213;-85
2023/07/14 05:27:46;;;;;;;3.58;1.50;;;;;;;-145.69;48.61;51880.00;5097716;28;20198;-85
2023/07/14 05:30:15;;;;;;;5.38;1.70;;;;;;;-145.69;47.48;51814.66;5099741;28;20206;-85
2023/07/14 05:32:43;;;;;;;3.33;1.40;;;;;;;-145.69;47.24;51830.50;5082428;28;20207;-85
2023/07/14 05:35:11;;;;;;;5.00;1.30;;;;;;;-145.69;46.43;51830.50;5075942;28;20603;-85
2023/07/14 05:37:39;;;;;;;4.25;1.45;;;;;;;-145.69;46.69;51836.44;5075973;28;20729;-85
2023/07/14 05:40:10;;;;;;;2.85;1.27;;;;;;;-145.69;46.34;51838.44;5079341;28;20207;-86
2023/07/14 05:42:36;;;;;;;3.20;1.15;;;;;;;-145.69;46.37;51828.53;5095967;28;20205;-85
2023/07/14 05:45:04;;;;;;;6.90;1.45;;;;;;;-145.69;46.18;51844.38;5096867;28;20237;-85
2023/07/14 05:47:31;;;;;;;3.17;1.20;;;;;;;-145.69;45.83;51826.56;5098757;28;20209;-85
2023/07/14 05:49:58;;;;;;;4.18;1.40;;;;;;;-145.69;46.01;51846.34;5101982;28;20209;-85
2023/07/14 05:52:24;;;;;;;4.68;1.50;;;;;;;-145.69;45.62;51818.63;5099523;28;20202;-85
2023/07/14 05:54:52;;;;;;;5.97;1.50;;;;;;;-145.69;45.81;51826.56;5100095;28;20202;-85
2023/07/14 05:57:19;;;;;;;1.95;1.23;;;;;;;-145.69;45.13;51786.94;5098043;28;20301;-85
2023/07/14 05:59:45;;;;;;;3.25;1.50;;;;;;;-145.69;44.86;51810.72;5098188;28;20222;-85
2023/07/14 06:02:13;;;;;;;3.20;1.35;;;;;;;-145.69;44.85;51820.59;5097978;28;20288;-87
2023/07/14 06:04:40;;;;;;;3.28;1.40;;;;;;;-145.69;43.76;51792.88;5101387;28;20225;-86
2023/07/14 06:07:07;;;;;;;8.75;1.50;;;;;;;-145.69;43.91;51822.59;5102607;28;20210;-86
2023/07/14 06:09:35;;;;;;;6.65;1.30;;;;;;;-145.69;43.45;51794.88;5102219;28;20194;-85
2023/07/14 06:12:04;;;;;;;4.88;1.50;;;;;;;-145.69;42.70;51788.94;5101752;28;20198;-85
2023/07/14 06:14:32;;;;;;;4.20;1.20;;;;;;;-145.69;42.83;51765.16;5104958;28;20198;-86
2023/07/14 06:16:58;;;;;;;3.50;1.02;;;;;;;-145.69;42.26;51840.41;5100359;28;20261;-85
2023/07/14 06:19:25;;;;;;;4.97;1.42;;;;;;;-145.69;41.85;51790.91;5097598;28;20228;-85
2023/07/14 06:21:51;;;;;;;3.75;1.17;;;;;;;-145.69;41.33;51783.00;5098686;28;20225;-86
2023/07/14 06:24:18;;;;;;;4.50;1.50;;;;;;;-145.69;41.54;51771.09;5102306;28;20198;-86
2023/07/14 06:26:45;;;;;;;3.00;1.25;;;;;;;-145.69;41.31;51779.03;5098837;28;20195;-87
2023/07/14 06:29:13;;;;;;;3.40;1.33;;;;;;;-145.69;41.07;51763.19;5097193;28;20290;-88
2023/07/14 06:31:39;;;;;;;3.83;1.20;;;;;;;-145.69;40.41;51773.09;5095776;28;20198;-87
2023/07/14 06:34:06;;;;;;;3.67;1.42;;;;;;;-145.69;40.42;51784.97;5095012;28;20244;-87
2023/07/14 06:36:33;;;;;;;4.00;1.15;;;;;;;-145.69;40.56;51745.38;5097525;28;20202;-86
2023/07/14 06:39:00;;;;;;;3.08;1.10;;;;;;;-145.69;40.56;51779.03;5096107;28;20226;-85
2023/07/14 06:41:27;;;;;;;2.83;1.30;;;;;;;-145.69;40.76;51773.09;5096713;28;20296;-85
2023/07/14 06:43:54;;;;;;;1.85;1.45;;;;;;;-145.69;40.50;51765.16;5096963;28;20261;-85
2023/07/14 06:46:22;;;;;;;2.90;1.00;;;;;;;-145.69;39.09;51763.19;5095078;28;20536;-86
2023/07/14 06:48:48;;;;;;;3.78;1.20;;;;;;;-145.69;39.12;51725.56;5096087;28;20190;-83
2023/07/14 06:51:15;;;;;;;2.33;1.10;;;;;;;-145.69;39.13;51779.03;5096868;28;20201;-86
2023/07/14 06:53:42;;;;;;;5.57;1.30;;;;;;;-145.69;38.75;51723.59;5096993;28;20281;-87
2023/07/14 06:56:08;;;;;;;2.10;1.42;;;;;;;-145.69;38.51;51747.34;5094684;28;20649;-87
2023/07/14 06:58:35;;;;;;;3.00;0.90;;;;;;;-145.69;37.79;51763.19;5094273;28;20228;-87
2023/07/14 07:01:03;;;;;;;2.15;1.05;;;;;;;-145.69;39.02;51757.25;5094538;28;20201;-87
2023/07/14 07:03:31;;;;;;;3.75;1.02;;;;;;;-145.69;38.41;51747.34;5094458;28;20256;-83
2023/07/14 07:05:57;;;;;;;2.80;0.95;;;;;;;-145.69;38.38;51745.38;5095158;28;20202;-83
2023/07/14 07:08:24;;;;;;;2.92;1.02;;;;;;;-145.69;37.78;51743.38;5093751;28;20208;-84
2023/07/14 07:10:51;;;;;;;2.75;1.15;;;;;;;-145.69;37.52;51745.38;5095273;28;20641;-85
2023/07/14 07:13:17;;;;;;;2.38;1.50;;;;;;;-145.69;38.29;51719.63;5093912;28;20229;-84
2023/07/14 07:15:44;;;;;;;1.45;1.20;;;;;;;-145.69;37.57;51717.66;5094722;28;20198;-87
2023/07/14 07:18:10;;;;;;;1.70;1.00;;;;;;;-145.69;37.65;51745.38;5093903;28;20210;-85
2023/07/14 07:20:43;;;;;;;2.83;1.13;;;;;;;-145.69;37.95;51723.59;5094004;28;20283;-86
2023/07/14 07:23:10;;;;;;;3.83;1.15;;;;;;;-145.69;37.23;51729.53;5094316;28;20280;-86
2023/07/14 07:25:37;;;;;;;5.55;1.10;;;;;;;-145.69;37.33;51751.31;5094670;28;20221;-85
2023/07/14 07:28:04;;;;;;;2.58;0.90;;;;;;;-145.69;37.08;51723.59;5094406;28;20201;-86
2023/07/14 07:30:31;;;;;;;7.32;1.60;;;;;;;-145.69;37.52;51723.59;5098530;28;20208;-86
2023/07/14 07:32:58;;;;;;;1.50;1.00;;;;;;;-145.69;37.11;51703.78;5098774;28;20193;-86
2023/07/14 07:35:28;;;;;;;1.63;1.02;;;;;;;-145.69;36.70;51739.44;5099113;28;20205;-86
2023/07/14 07:37:58;;;;;;;3.30;1.35;;;;;;;-145.69;36.93;51715.66;5100727;28;20198;-86
2023/07/14 07:40:25;;;;;;;2.13;1.10;;;;;;;-145.69;37.49;51715.66;5095231;28;20221;-87
2023/07/14 07:42:54;;;;;;;3.72;1.10;;;;;;;-145.69;37.58;51731.50;5078728;28;20200;-85
2023/07/14 07:45:23;;;;;;;2.42;0.90;;;;;;;-145.69;36.13;51683.97;5079018;28;20209;-86
2023/07/14 07:47:50;;;;;;;3.45;1.35;;;;;;;-145.69;35.83;51737.44;5079362;28;20210;-86
2023/07/14 07:50:17;;;;;;;1.70;1.17;;;;;;;-145.69;36.52;51707.75;5077452;28;20198;-85
2023/07/14 07:52:45;;;;;;;3.38;1.10;;;;;;;-145.69;35.83;51695.88;5078145;28;20206;-87
2023/07/14 07:55:13;;;;;;;2.72;1.05;;;;;;;-145.69;35.47;51693.88;5078374;28;20270;-85
2023/07/14 07:57:40;;;;;;;3.20;1.10;;;;;;;-145.69;34.63;51691.91;5077864;28;20195;-87
2023/07/14 08:00:19;;;;;;;1.50;1.02;;;;;;;-145.69;34.84;51697.84;5078568;28;20589;-87
2023/07/14 08:02:51;;;;;;;4.72;1.17;;;;;;;-145.69;34.81;51656.25;5088802;28;20339;-86
2023/07/14 08:05:18;;;;;;;2.25;0.90;;;;;;;-145.69;34.65;51699.81;5097098;28;20198;-87
2023/07/14 08:07:45;;;;;;;1.73;0.90;;;;;;;-145.69;34.65;51674.09;5097979;28;20298;-85
2023/07/14 08:10:13;;;;;;;2.45;1.02;;;;;;;-145.69;34.13;51672.09;5098156;28;20194;-87
2023/07/14 08:12:39;;;;;;;3.42;1.13;;;;;;;-145.69;33.77;51680.03;5097693;28;20236;-86
2023/07/14 08:15:07;;;;;;;6.70;1.58;;;;;;;-145.69;34.35;51656.25;5097264;28;20198;-87
2023/07/14 08:17:34;;;;;;;4.55;1.08;;;;;;;-145.69;33.92;51683.97;5097791;28;20206;-85
2023/07/14 08:20:00;;;;;;;1.25;0.80;;;;;;;-145.69;33.95;51666.16;5092153;28;20317;-86
2023/07/14 08:22:27;;;;;;;2.90;1.10;;;;;;;-145.69;33.68;51628.53;5094894;28;20208;-86
2023/07/14 08:24:57;;;;;;;2.67;1.10;;;;;;;-145.69;33.71;51672.09;5094516;28;20217;-86
2023/07/14 08:27:25;;;;;;;1.67;0.90;;;;;;;-145.69;34.00;51668.16;5095617;28;20233;-87
2023/07/14 08:29:53;;;;;;;4.43;1.10;;;;;;;-145.69;33.54;51664.19;5095136;28;20200;-85
2023/07/14 08:32:20;;;;;;;3.00;0.90;;;;;;;-145.69;33.18;51666.16;5096417;28;20194;-85
2023/07/14 08:34:46;;;;;;;4.72;1.13;;;;;;;-145.69;33.75;51630.53;5095707;28;20214;-86
2023/07/14 08:37:14;;;;;;;3.05;1.17;;;;;;;-145.69;32.74;51650.31;5096178;28;20201;-85
2023/07/14 08:39:40;;;;;;;3.28;1.30;;;;;;;-145.69;32.82;51616.66;5094708;28;20263;-86
2023/07/14 08:42:18;;;;;;;3.58;0.90;;;;;;;-145.69;33.41;51640.44;5095000;28;20210;-86
2023/07/14 08:45:00;;;;;;;2.72;1.00;;;;;;;-145.69;32.58;51628.53;5095879;28;20198;-85
2023/07/14 08:47:32;;;;;;;1.85;1.00;;;;;;;-145.69;32.45;51577.06;5095396;28;20247;-85
2023/07/14 08:50:03;;;;;;;3.75;1.05;;;;;;;-145.69;32.53;51616.66;5094800;28;20538;-87
2023/07/14 08:52:33;;;;;;;4.88;1.10;;;;;;;-145.69;32.45;51620.63;5094465;28;20244;-86
2023/07/14 08:55:03;;;;;;;4.40;1.10;;;;;;;-145.69;31.15;51588.94;5094232;28;20222;-86
2023/07/14 08:57:31;;;;;;;2.67;1.38;;;;;;;-145.69;31.11;51600.81;5097242;28;20204;-85
2023/07/14 09:00:03;;;;;;;3.75;1.08;;;;;;;-145.69;31.12;51608.75;5100784;28;20228;-83
2023/07/14 09:02:36;;;;;;;2.40;1.25;;;;;;;-145.69;30.93;51594.88;5096629;28;20646;-85
2023/07/14 09:05:09;;;;;;;2.58;1.13;;;;;;;-145.69;30.79;51616.66;5096097;28;20198;-81
2023/07/14 09:07:37;;;;;;;4.95;1.20;;;;;;;-145.69;30.79;51588.94;5095844;28;20202;-83
2023/07/14 09:10:04;;;;;;;1.65;1.02;;;;;;;-145.69;31.21;51588.94;5096766;28;20206;-86
2023/07/14 09:12:37;;;;;;;2.85;1.00;;;;;;;-145.69;31.37;51586.97;5094167;28;20230;-85
2023/07/14 09:15:08;;;;;;;2.80;0.88;;;;;;;-145.69;30.81;51577.06;5096023;28;20201;-84
2023/07/14 09:17:53;;;;;;;2.60;1.13;;;;;;;-145.69;31.14;51598.84;5096156;28;20210;-88
2023/07/14 09:20:29;;;;;;;4.70;1.30;;;;;;;-145.69;31.08;51602.81;5095986;28;20311;-85
2023/07/14 09:23:04;;;;;;;3.65;0.93;;;;;;;-145.69;30.31;51579.03;5096298;28;20210;-85
2023/07/14 09:25:39;;;;;;;4.22;1.27;;;;;;;-145.69;29.90;51592.91;5096739;28;20212;-86
2023/07/14 09:28:12;;;;;;;4.22;1.02;;;;;;;-145.69;29.55;51592.91;5095665;28;20293;-86
2023/07/14 09:30:40;;;;;;;2.95;0.98;;;;;;;-145.69;30.08;51594.88;5095003;28;20243;-85
2023/07/14 09:33:13;;;;;;;1.30;0.85;;;;;;;-145.69;30.01;51579.03;5094218;28;20198;-81
2023/07/14 09:35:40;;;;;;;6.47;1.45;;;;;;;-145.69;30.34;51588.94;5094228;28;20560;-85
2023/07/14 09:38:15;;;;;;;2.75;1.10;;;;;;;-145.69;29.91;51581.03;5095261;28;20233;-85
2023/07/14 09:40:46;;;;;;;1.73;0.90;;;;;;;-145.69;29.74;51565.19;5091765;28;20221;-85
2023/07/14 09:43:12;;;;;;;3.80;1.08;;;;;;;-145.69;29.82;51565.19;5095633;28;20541;-86
2023/07/14 09:45:40;;;;;;;2.97;1.40;;;;;;;-145.69;29.83;51581.03;5095374;28;20202;-86
2023/07/14 09:48:15;;;;;;;2.38;1.00;;;;;;;-145.69;29.23;51581.03;5095933;28;20213;-84
2023/07/14 09:50:51;;;;;;;3.00;1.35;;;;;;;-145.69;30.88;51549.34;5096074;28;20633;-85
2023/07/14 09:53:17;;;;;;;2.08;0.93;;;;;;;-145.69;30.57;51569.16;5096235;28;20288;-85
2023/07/14 09:55:50;;;;;;;3.90;1.25;;;;;;;-145.69;28.69;51583.00;5095363;28;20637;-86
2023/07/14 09:58:17;;;;;;;10.43;1.40;;;;;;;-145.69;28.86;51555.28;5095072;28;20596;-82
2023/07/14 10:00:50;;;;;;;1.92;1.02;;;;;;;-145.69;28.79;51541.44;5095212;28;20229;-83
2023/07/14 10:03:16;;;;;;;1.88;1.10;;;;;;;-145.69;29.46;51545.38;5094529;28;20222;-85
2023/07/14 10:05:54;;;;;;;3.38;1.00;;;;;;;-145.69;28.53;51557.25;5095403;28;20198;-85
2023/07/14 10:08:30;;;;;;;3.00;1.00;;;;;;;-145.69;28.61;51517.66;5097526;28;20237;-86
2023/07/14 10:10:59;;;;;;;2.15;0.80;;;;;;;-145.69;29.43;51527.56;5097135;28;20251;-86
2023/07/14 10:13:28;;;;;;;1.77;1.10;;;;;;;-145.69;28.89;51541.44;5096460;28;20252;-86
2023/07/14 10:16:03;;;;;;;3.53;1.40;;;;;;;-145.69;28.58;51521.63;5097068;28;20206;-86
2023/07/14 10:18:30;;;;;;;1.70;1.20;;;;;;;-145.69;28.64;51541.44;5096282;28;20216;-85
2023/07/14 10:21:05;;;;;;;1.85;0.90;;;;;;;-145.69;28.72;51553.31;5095018;28;20237;-86
2023/07/14 10:23:33;;;;;;;4.55;1.20;;;;;;;-145.69;28.53;51531.53;5095165;28;20606;-86
2023/07/14 10:26:00;;;;;;;4.63;0.98;;;;;;;-145.69;28.65;51547.38;5095258;28;20549;-86
2023/07/14 10:28:29;;;;;;;3.35;1.30;;;;;;;-145.69;28.84;51527.56;5097179;28;20257;-86
2023/07/14 10:31:12;;;;;;;2.35;1.02;;;;;;;-145.69;29.28;51553.31;5098591;28;20253;-86
2023/07/14 10:33:48;;;;;;;3.97;1.10;;;;;;;-145.69;29.82;51543.41;5094685;28;20223;-86
2023/07/14 10:36:21;;;;;;;2.92;1.40;;;;;;;-145.69;28.89;51517.66;5095649;28;20252;-86
2023/07/14 10:38:54;;;;;;;2.30;0.90;;;;;;;-145.69;28.94;51541.44;5097170;28;20218;-87
2023/07/14 10:41:23;;;;;;;3.63;1.00;;;;;;;-145.69;29.15;51529.53;5093823;28;20579;-85
2023/07/14 10:43:54;;;;;;;1.67;0.93;;;;;;;-145.69;29.10;51545.38;5094600;28;20209;-85
2023/07/14 10:46:25;;;;;;;2.17;1.08;;;;;;;-145.69;29.59;51569.16;5094277;28;20240;-86
2023/07/14 10:48:57;;;;;;;3.60;0.98;;;;;;;-145.69;28.94;51545.38;5093787;28;20212;-85
2023/07/14 10:51:34;;;;;;;4.38;1.25;;;;;;;-145.69;28.76;51539.44;5094624;28;20205;-87
2023/07/14 10:54:05;;;;;;;2.47;1.20;;;;;;;-145.69;28.81;51535.50;5093980;28;20297;-86
2023/07/14 10:56:40;;;;;;;2.20;1.00;;;;;;;-145.69;28.85;51553.31;5093684;28;20202;-84
2023/07/14 10:59:21;;;;;;;1.77;0.90;;;;;;;-145.69;27.16;51533.50;5093847;28;20205;-85
2023/07/14 11:01:57;;;;;;;1.55;0.90;;;;;;;-145.69;27.68;51517.66;5093193;28;20202;-85
2023/07/14 11:04:29;;;;;;;4.35;1.20;;;;;;;-145.69;28.15;51537.47;5092673;28;20205;-85
2023/07/14 11:06:56;;;;;;;1.70;1.10;;;;;;;-145.69;27.67;51545.38;5092791;28;20190;-85
2023/07/14 11:09:23;;;;;;;3.33;1.17;;;;;;;-145.69;28.27;51509.75;5092418;28;20198;-86
2023/07/14 11:12:00;;;;;;;4.40;1.10;;;;;;;-145.69;29.22;51533.50;5093420;28;20442;-86
2023/07/14 11:14:36;;;;;;;2.63;1.15;;;;;;;-145.69;28.92;51537.47;5094766;28;20288;-86
2023/07/14 11:17:14;;;;;;;2.00;0.90;;;;;;;-145.69;28.74;51529.53;5093816;28;20648;-86
2023/07/14 11:19:55;;;;;;;3.72;0.93;;;;;;;-145.69;28.22;51525.59;5094174;28;20237;-86
2023/07/14 11:22:33;;;;;;;3.15;1.20;;;;;;;-145.69;28.69;51529.53;5095607;28;20611;-86
2023/07/14 11:25:11;;;;;;;4.40;1.08;;;;;;;-145.69;27.98;51482.03;5094079;28;20220;-85